This is the latest recevied weather packets stored in our database for station/object EUGENE. If no packets are shown the sender has not sent any weather packets the latest 10 day(s).
| Time | Temp. | Humidity | Pressure | Rain* | Wind** | Luminosity | Snow |
|---|---|---|---|---|---|---|---|
| 1778040732 | 13.89° C | 86% | 1016 hPa | 0 mm | - | - | - |
| 1778039832 | 14.44° C | 85% | 1015.8 hPa | 0 mm | - | - | - |
| 1778038932 | 15° C | 83% | 1015.6 hPa | 0 mm | - | - | - |
| 1778038032 | 15.56° C | 81% | 1015.4 hPa | 0 mm | - | - | - |
| 1778037132 | 16.11° C | 80% | 1015.3 hPa | 0 mm | - | - | - |
| 1778036232 | 16.67° C | 78% | 1015.3 hPa | 0 mm | - | - | - |
| 1778035332 | 17.22° C | 76% | 1015.1 hPa | 0 mm | - | - | - |
| 1778034432 | 17.78° C | 75% | 1015.1 hPa | 0 mm | - | - | - |
| 1778033532 | 18.89° C | 73% | 1015 hPa | 0 mm | - | - | - |
| 1778032632 | 20° C | 68% | 1015 hPa | 0 mm | - | - | - |
| 1778031731 | 20.56° C | 69% | 1014.8 hPa | 0 mm | - | - | - |
| 1778030832 | 20° C | 70% | 1014.8 hPa | 0 mm | - | - | - |
| 1778029932 | 20° C | 70% | 1014.8 hPa | 0 mm | - | - | - |
| 1778029031 | 20° C | 69% | 1014.8 hPa | 0 mm | - | - | - |
| 1778028132 | 20.56° C | 68% | 1014.8 hPa | 0 mm | - | - | - |
| 1778027232 | 21.11° C | 68% | 1014.9 hPa | 0 mm | - | - | - |
| 1778026332 | 20.56° C | 70% | 1014.9 hPa | 0 mm | - | - | - |
| 1778025432 | 20.56° C | 67% | 1015 hPa | 0 mm | - | - | - |
| 1778024531 | 20.56° C | 67% | 1015.1 hPa | 0 mm | - | - | - |
| 1778023632 | 20.56° C | 68% | 1015.2 hPa | 0 mm | - | - | - |
| 1778022732 | 20° C | 72% | 1015.3 hPa | 0 mm | - | - | - |
| 1778021832 | 19.44° C | 69% | 1015.5 hPa | 0 mm | - | - | - |
| 1778020932 | 20° C | 70% | 1015.6 hPa | 0 mm | - | - | - |
| 1778020031 | 18.89° C | 71% | 1015.8 hPa | 0 mm | - | - | - |
| 1778019131 | 18.33° C | 74% | 1016 hPa | 0 mm | - | - | - |
* Rain latest hour (hover to see other rain measurements)
** Current wind speed in m/s (hover to see current wind gust speed)